Time;durP1;ratioP1;P1;durP2;ratioP2;P2;SDS_P1;SDS_P2;PMS_P1;PMS_P2;Temp;Humidity;BMP_temperature;BMP_pressure;BME280_temperature;BME280_humidity;BME280_pressure;Samples;Min_cycle;Max_cycle;Signal;HPM_P1;HPM_P2
2021/12/29 00:01:53;;;;;;;66.57;22.77;;;6.70;99.90;;;;;;5084107;27;20055;-84
2021/12/29 00:04:19;;;;;;;61.53;21.20;;;6.70;99.90;;;;;;5067503;27;20047;-85
2021/12/29 00:06:44;;;;;;;50.87;19.23;;;6.70;99.90;;;;;;5070749;28;20047;-84
2021/12/29 00:09:10;;;;;;;49.23;18.10;;;6.70;99.90;;;;;;5081418;27;20106;-85
2021/12/29 00:11:39;;;;;;;53.97;20.63;;;6.70;99.90;;;;;;5064746;27;20094;-84
2021/12/29 00:14:07;;;;;;;65.67;21.33;;;6.80;99.90;;;;;;5085191;27;20516;-84
2021/12/29 00:16:35;;;;;;;59.87;19.83;;;6.70;99.90;;;;;;5084204;27;20084;-85
2021/12/29 00:19:05;;;;;;;60.83;19.43;;;6.80;99.90;;;;;;5100030;27;20038;-85
2021/12/29 00:21:36;;;;;;;76.80;22.00;;;6.70;99.90;;;;;;5080086;27;20157;-84
2021/12/29 00:24:05;;;;;;;50.10;17.67;;;6.80;99.90;;;;;;5092651;27;20106;-84
2021/12/29 00:26:32;;;;;;;63.90;20.07;;;6.70;99.90;;;;;;5096776;28;20078;-84
2021/12/29 00:28:59;;;;;;;74.70;22.27;;;6.70;99.90;;;;;;5095456;28;20493;-83
2021/12/29 00:31:29;;;;;;;43.70;17.03;;;6.70;99.90;;;;;;5080603;28;20036;-84
2021/12/29 00:33:56;;;;;;;48.60;17.33;;;6.70;99.90;;;;;;5096535;28;20054;-84
2021/12/29 00:36:22;;;;;;;42.10;16.07;;;6.70;99.90;;;;;;5095356;28;20047;-84
2021/12/29 00:38:48;;;;;;;52.47;17.93;;;6.70;99.90;;;;;;5096038;28;20040;-83
2021/12/29 00:41:14;;;;;;;41.63;15.90;;;6.70;99.90;;;;;;5111007;28;20051;-84
2021/12/29 00:43:40;;;;;;;46.30;16.57;;;6.70;99.90;;;;;;5095013;28;20055;-83
2021/12/29 00:46:08;;;;;;;50.07;16.70;;;6.70;99.90;;;;;;5078006;28;20107;-84
2021/12/29 00:48:38;;;;;;;45.23;16.60;;;6.70;99.90;;;;;;5112896;28;20043;-83
2021/12/29 00:51:05;;;;;;;44.77;15.87;;;6.60;99.90;;;;;;5079779;28;20065;-83
2021/12/29 00:53:31;;;;;;;44.27;15.90;;;6.60;99.90;;;;;;5070626;28;20115;-84
2021/12/29 00:55:57;;;;;;;44.63;16.50;;;6.70;99.90;;;;;;5094421;28;20063;-84
2021/12/29 00:58:22;;;;;;;41.00;14.43;;;6.60;99.90;;;;;;5076264;28;20067;-84
2021/12/29 01:00:49;;;;;;;42.23;14.17;;;6.60;99.90;;;;;;5079147;28;20064;-83
2021/12/29 01:03:15;;;;;;;43.43;14.53;;;6.60;99.90;;;;;;5106806;28;20048;-84
2021/12/29 01:05:41;;;;;;;43.23;14.50;;;6.60;99.90;;;;;;5076264;28;20100;-84
2021/12/29 01:08:08;;;;;;;34.53;13.40;;;6.60;99.90;;;;;;5075475;28;20047;-84
2021/12/29 01:10:35;;;;;;;36.03;13.63;;;6.60;99.90;;;;;;5087581;28;20050;-84
2021/12/29 01:13:02;;;;;;;41.20;14.87;;;6.60;99.90;;;;;;5078975;28;20090;-84
2021/12/29 01:15:36;;;;;;;39.70;15.33;;;6.60;99.90;;;;;;5091875;28;20091;-84
2021/12/29 01:18:05;;;;;;;37.97;14.13;;;6.60;99.90;;;;;;5087454;28;20079;-83
2021/12/29 01:20:32;;;;;;;37.00;13.13;;;6.60;99.90;;;;;;5095464;28;20058;-85
2021/12/29 01:22:59;;;;;;;42.73;13.33;;;6.60;99.90;;;;;;5111935;28;20099;-84
2021/12/29 01:25:26;;;;;;;37.93;12.63;;;6.60;99.90;;;;;;5095092;28;20040;-84
2021/12/29 01:27:52;;;;;;;41.47;13.87;;;6.60;99.90;;;;;;5060370;28;20105;-84
2021/12/29 01:30:19;;;;;;;38.83;13.33;;;6.60;99.90;;;;;;5078580;28;20059;-84
2021/12/29 01:32:44;;;;;;;50.93;14.37;;;6.60;99.90;;;;;;5088687;28;20044;-84
2021/12/29 01:35:11;;;;;;;41.33;13.30;;;6.60;99.90;;;;;;5080194;28;20049;-84
2021/12/29 01:37:38;;;;;;;53.93;14.17;;;6.60;99.90;;;;;;5072515;28;20061;-85
2021/12/29 01:40:07;;;;;;;56.27;15.17;;;6.60;99.90;;;;;;5080764;28;20047;-83
2021/12/29 01:42:33;;;;;;;53.87;13.97;;;6.60;99.90;;;;;;5093450;28;20062;-84
2021/12/29 01:44:59;;;;;;;51.60;14.73;;;6.60;99.90;;;;;;5105348;28;20055;-83
2021/12/29 01:47:30;;;;;;;58.10;16.07;;;6.60;99.90;;;;;;5063201;28;20120;-84
2021/12/29 01:49:57;;;;;;;50.83;13.67;;;6.70;99.90;;;;;;5094626;28;20138;-83
2021/12/29 01:52:27;;;;;;;64.27;15.43;;;6.60;99.90;;;;;;5095473;28;20040;-84
2021/12/29 01:54:53;;;;;;;62.43;15.47;;;6.60;99.90;;;;;;5078574;28;20047;-84
2021/12/29 01:57:20;;;;;;;78.07;17.77;;;6.70;99.90;;;;;;5101035;28;20055;-84
2021/12/29 01:59:46;;;;;;;60.23;16.77;;;6.60;99.90;;;;;;5096199;28;20040;-85
2021/12/29 02:02:16;;;;;;;65.37;16.70;;;6.70;99.90;;;;;;5117550;28;20070;-84
2021/12/29 02:04:45;;;;;;;69.63;16.93;;;6.70;99.90;;;;;;5063808;28;20043;-82
2021/12/29 02:07:11;;;;;;;78.83;18.87;;;6.70;99.90;;;;;;5099637;28;20073;-84
2021/12/29 02:09:37;;;;;;;91.60;20.83;;;6.70;99.90;;;;;;5098681;28;20107;-84
2021/12/29 02:12:04;;;;;;;83.10;20.07;;;6.70;99.90;;;;;;5073993;28;20544;-84
2021/12/29 02:14:30;;;;;;;78.13;18.67;;;6.70;99.90;;;;;;5100414;28;20035;-84
2021/12/29 02:16:56;;;;;;;104.83;21.70;;;6.70;99.90;;;;;;5079247;28;20931;-84
2021/12/29 02:19:25;;;;;;;105.43;21.03;;;6.80;99.90;;;;;;5082361;28;20051;-84
2021/12/29 02:22:06;;;;;;;89.17;20.33;;;6.80;99.90;;;;;;5096577;28;20048;-83
2021/12/29 02:24:39;;;;;;;87.18;19.55;;;6.80;99.90;;;;;;5072315;28;20039;-83
2021/12/29 02:27:07;;;;;;;98.90;20.37;;;6.80;99.90;;;;;;5098088;28;20047;-84
2021/12/29 02:29:34;;;;;;;119.77;22.67;;;6.80;99.90;;;;;;5096973;28;20048;-83
2021/12/29 02:32:00;;;;;;;106.57;20.77;;;6.80;99.90;;;;;;5080644;28;20570;-84
2021/12/29 02:34:26;;;;;;;109.47;21.17;;;6.80;99.90;;;;;;5086662;28;20043;-84
2021/12/29 02:36:54;;;;;;;93.23;20.53;;;6.90;99.90;;;;;;5069391;28;20082;-84
2021/12/29 02:39:23;;;;;;;110.83;20.63;;;6.90;99.90;;;;;;5098145;28;20081;-84
2021/12/29 02:41:54;;;;;;;95.47;20.40;;;6.90;99.90;;;;;;5095980;28;20487;-84
2021/12/29 02:44:26;;;;;;;58.33;14.67;;;7.00;99.90;;;;;;5122261;27;20046;-84
2021/12/29 02:46:53;;;;;;;77.93;16.57;;;7.00;99.90;;;;;;5113321;28;20051;-83
2021/12/29 02:49:20;;;;;;;75.10;16.27;;;7.00;99.90;;;;;;5098360;28;20043;-84
2021/12/29 02:51:47;;;;;;;69.43;15.73;;;7.00;99.90;;;;;;5095402;28;20048;-83
2021/12/29 02:54:13;;;;;;;65.00;13.83;;;7.00;99.90;;;;;;5098093;28;20055;-84
2021/12/29 02:56:39;;;;;;;63.73;14.87;;;7.00;99.90;;;;;;5073255;28;20104;-83
2021/12/29 02:59:05;;;;;;;59.57;12.53;;;7.00;99.90;;;;;;5066660;28;20058;-84
2021/12/29 03:01:31;;;;;;;63.17;13.40;;;7.00;99.90;;;;;;5081781;28;20043;-84
2021/12/29 03:03:58;;;;;;;49.93;12.13;;;7.00;99.90;;;;;;5111569;28;20126;-84
2021/12/29 03:06:25;;;;;;;57.47;13.00;;;7.00;99.90;;;;;;5095990;28;20040;-83
2021/12/29 03:08:51;;;;;;;60.97;13.00;;;7.00;99.90;;;;;;5061786;28;20039;-83
2021/12/29 03:11:17;;;;;;;51.97;13.10;;;7.10;99.90;;;;;;5081209;28;20051;-83
2021/12/29 03:13:43;;;;;;;55.37;12.90;;;7.00;99.90;;;;;;5079969;28;20123;-83
2021/12/29 03:16:10;;;;;;;59.43;13.87;;;7.00;99.90;;;;;;5094139;28;20214;-84
2021/12/29 03:18:36;;;;;;;57.30;12.83;;;7.10;99.90;;;;;;5101091;28;20043;-83
2021/12/29 03:21:03;;;;;;;63.83;14.03;;;7.10;99.90;;;;;;5078692;28;20055;-83
2021/12/29 03:23:30;;;;;;;66.50;14.90;;;7.10;99.90;;;;;;5098064;28;20082;-83
2021/12/29 03:25:56;;;;;;;64.30;13.63;;;7.10;99.90;;;;;;5095923;28;20051;-84
2021/12/29 03:28:24;;;;;;;66.73;14.60;;;7.10;99.90;;;;;;5097521;28;20056;-84
2021/12/29 03:30:54;;;;;;;56.27;15.33;;;7.10;99.90;;;;;;5095986;28;20040;-84
2021/12/29 03:33:20;;;;;;;68.93;14.20;;;7.20;99.90;;;;;;5113862;28;20713;-84
2021/12/29 03:35:49;;;;;;;72.20;16.47;;;7.20;99.90;;;;;;5097319;28;20047;-83
2021/12/29 03:38:24;;;;;;;83.10;17.80;;;7.20;99.90;;;;;;5104462;28;20047;-85
2021/12/29 03:40:52;;;;;;;65.53;16.57;;;7.20;99.90;;;;;;5079310;28;20052;-83
2021/12/29 03:43:18;;;;;;;71.10;18.47;;;7.20;99.90;;;;;;5097310;28;20043;-84
2021/12/29 03:45:46;;;;;;;75.03;19.47;;;7.20;99.90;;;;;;5077762;28;20097;-83
2021/12/29 03:48:14;;;;;;;84.20;19.10;;;7.20;99.90;;;;;;5095888;28;20051;-83
2021/12/29 03:50:40;;;;;;;97.47;20.70;;;7.30;99.90;;;;;;5078553;28;20088;-83
2021/12/29 03:53:08;;;;;;;89.70;19.80;;;7.30;99.90;;;;;;5095415;28;20068;-84
2021/12/29 03:55:34;;;;;;;80.47;20.50;;;7.30;99.90;;;;;;5098934;28;20042;-84
2021/12/29 03:57:59;;;;;;;84.20;21.07;;;7.30;99.90;;;;;;5083923;28;20079;-83
2021/12/29 04:00:25;;;;;;;80.17;19.47;;;7.30;99.90;;;;;;5095504;28;20047;-85
2021/12/29 04:02:51;;;;;;;91.17;23.13;;;7.30;99.90;;;;;;5080440;28;20051;-83
2021/12/29 04:05:20;;;;;;;87.23;21.07;;;7.30;99.90;;;;;;5077668;28;20566;-83
2021/12/29 04:07:47;;;;;;;81.90;20.83;;;7.40;99.90;;;;;;5094798;28;20054;-82
2021/12/29 04:10:14;;;;;;;107.83;26.80;;;7.30;99.90;;;;;;5097702;28;20647;-83
2021/12/29 04:12:41;;;;;;;84.87;25.10;;;7.40;99.90;;;;;;5086860;28;20054;-83
2021/12/29 04:15:09;;;;;;;90.53;25.43;;;7.30;99.90;;;;;;5063858;28;20044;-84
2021/12/29 04:17:38;;;;;;;87.17;24.33;;;7.40;99.90;;;;;;5079620;28;20043;-83
2021/12/29 04:22:56;;;;;;;111.83;27.23;;;7.40;99.90;;;;;;5109798;28;20095;-83
2021/12/29 04:25:26;;;;;;;98.17;26.63;;;7.40;99.90;;;;;;5075331;28;20048;-83
2021/12/29 04:27:57;;;;;;;98.67;26.20;;;7.40;99.90;;;;;;5068103;28;20437;-84
2021/12/29 04:30:24;;;;;;;99.70;25.83;;;7.40;99.90;;;;;;5075199;28;20052;-84
2021/12/29 04:32:52;;;;;;;92.50;26.47;;;7.40;99.90;;;;;;5074867;28;20036;-83
2021/12/29 04:35:22;;;;;;;88.93;27.30;;;7.50;99.90;;;;;;5075397;28;20080;-84
2021/12/29 04:37:49;;;;;;;98.57;27.07;;;7.40;99.90;;;;;;5073107;28;20044;-82
2021/12/29 04:40:16;;;;;;;103.43;28.07;;;7.50;99.90;;;;;;5058514;28;20048;-83
2021/12/29 04:42:42;;;;;;;89.07;26.40;;;7.40;99.90;;;;;;5057406;28;20043;-84
2021/12/29 04:45:08;;;;;;;107.90;28.40;;;7.50;99.90;;;;;;5074104;28;20123;-84
2021/12/29 04:47:39;;;;;;;95.57;27.57;;;7.50;99.90;;;;;;5058891;28;20055;-85
2021/12/29 04:50:13;;;;;;;90.33;27.77;;;7.50;99.90;;;;;;5044228;28;20073;-84
2021/12/29 04:52:38;;;;;;;109.60;28.83;;;7.50;99.90;;;;;;5060886;28;20091;-84
2021/12/29 04:55:07;;;;;;;101.73;28.00;;;7.50;99.90;;;;;;5058005;28;20086;-83
2021/12/29 04:57:33;;;;;;;90.70;27.67;;;7.50;99.90;;;;;;5076222;28;20032;-82
2021/12/29 04:59:59;;;;;;;82.90;26.47;;;7.50;99.90;;;;;;5065218;28;20044;-78
2021/12/29 05:02:24;;;;;;;90.53;27.63;;;7.50;99.90;;;;;;5056570;28;20321;-83
2021/12/29 05:04:59;;;;;;;114.73;30.07;;;7.50;99.90;;;;;;5041789;28;20600;-83
2021/12/29 05:10:09;;;;;;;79.70;24.17;;;7.50;99.90;;;;;;5065532;28;20040;-83
2021/12/29 05:12:35;;;;;;;86.50;26.57;;;7.50;99.90;;;;;;5057990;28;20051;-83
2021/12/29 05:15:01;;;;;;;83.87;25.27;;;7.50;99.90;;;;;;5056039;28;20044;-83
2021/12/29 05:17:26;;;;;;;85.07;26.23;;;7.60;99.90;;;;;;5070557;28;20051;-83
2021/12/29 05:19:52;;;;;;;78.80;24.47;;;7.50;99.90;;;;;;5042753;28;20097;-84
2021/12/29 05:22:18;;;;;;;92.87;26.50;;;7.50;99.90;;;;;;5058335;28;20048;-83
2021/12/29 05:24:44;;;;;;;80.23;24.03;;;7.50;99.90;;;;;;5054733;28;20051;-83
2021/12/29 05:27:09;;;;;;;88.10;26.57;;;7.50;99.90;;;;;;5043711;28;20052;-84
2021/12/29 05:29:35;;;;;;;80.93;24.73;;;7.50;99.90;;;;;;5091841;28;20056;-83
2021/12/29 05:32:01;;;;;;;80.27;24.50;;;7.50;99.90;;;;;;5063624;28;20047;-83
2021/12/29 05:34:27;;;;;;;87.13;24.50;;;7.50;99.90;;;;;;5059584;28;20040;-84
2021/12/29 05:36:53;;;;;;;87.03;22.97;;;7.50;99.90;;;;;;5058033;28;20080;-84
2021/12/29 05:39:19;;;;;;;75.50;21.97;;;7.50;99.90;;;;;;5079921;28;20059;-84
2021/12/29 05:41:45;;;;;;;85.30;25.57;;;7.50;99.90;;;;;;5058971;28;20054;-82
2021/12/29 05:44:11;;;;;;;70.17;22.60;;;7.60;99.90;;;;;;5078534;28;20071;-84
2021/12/29 05:46:37;;;;;;;79.77;24.00;;;7.60;99.90;;;;;;5078040;28;20044;-82
2021/12/29 05:49:03;;;;;;;72.47;22.40;;;7.60;99.90;;;;;;5060551;28;20617;-83
2021/12/29 05:51:28;;;;;;;71.93;23.03;;;7.50;99.90;;;;;;5077765;28;20036;-84
2021/12/29 05:53:54;;;;;;;73.87;22.87;;;7.60;99.90;;;;;;5095766;28;20040;-84
2021/12/29 05:56:20;;;;;;;79.17;23.80;;;7.60;99.90;;;;;;5059974;28;20522;-83
2021/12/29 05:58:46;;;;;;;76.63;22.63;;;7.60;99.90;;;;;;5084355;28;20059;-82
2021/12/29 06:01:12;;;;;;;75.67;22.43;;;7.60;99.90;;;;;;5063181;28;20051;-81
2021/12/29 06:03:39;;;;;;;71.07;22.67;;;7.60;99.90;;;;;;5074675;28;20040;-81
2021/12/29 06:06:06;;;;;;;75.83;22.97;;;7.60;99.90;;;;;;5078210;28;20047;-82
2021/12/29 06:08:32;;;;;;;70.10;23.80;;;7.60;99.90;;;;;;5058984;28;20074;-83
2021/12/29 06:10:57;;;;;;;66.03;22.93;;;7.60;99.90;;;;;;5056953;28;20035;-82
2021/12/29 06:13:23;;;;;;;79.43;25.17;;;7.60;99.90;;;;;;5061788;28;20039;-83
2021/12/29 06:15:49;;;;;;;70.23;23.43;;;7.60;99.90;;;;;;5092613;28;20078;-82
2021/12/29 06:18:14;;;;;;;70.50;22.17;;;7.60;99.90;;;;;;5059014;28;20078;-81
2021/12/29 06:20:40;;;;;;;75.43;23.60;;;7.50;99.90;;;;;;5093974;28;20054;-82
2021/12/29 06:23:12;;;;;;;84.97;25.50;;;7.60;99.90;;;;;;5060936;28;20076;-82
2021/12/29 06:25:38;;;;;;;73.07;23.40;;;7.60;99.90;;;;;;5075563;28;20047;-82
2021/12/29 06:28:04;;;;;;;74.97;23.70;;;7.50;99.90;;;;;;5060328;28;20052;-83
2021/12/29 06:30:30;;;;;;;88.17;24.27;;;7.60;99.90;;;;;;5057602;28;20074;-84
2021/12/29 06:32:56;;;;;;;69.37;22.67;;;7.60;99.90;;;;;;5075070;28;20162;-82
2021/12/29 06:35:22;;;;;;;75.87;22.67;;;7.60;99.90;;;;;;5077427;28;20043;-82
2021/12/29 06:37:48;;;;;;;64.67;21.90;;;7.60;99.90;;;;;;5076028;28;20571;-82
2021/12/29 06:40:15;;;;;;;66.13;21.73;;;7.60;99.90;;;;;;5094368;28;20052;-82
2021/12/29 06:42:41;;;;;;;82.40;22.93;;;7.60;99.90;;;;;;5076656;28;20056;-82
2021/12/29 06:45:08;;;;;;;65.07;21.47;;;7.60;99.90;;;;;;5075347;28;20104;-82
2021/12/29 06:47:34;;;;;;;83.00;25.17;;;7.60;99.90;;;;;;5068391;28;20622;-81
2021/12/29 06:50:00;;;;;;;67.77;23.30;;;7.60;99.90;;;;;;5076185;28;20059;-82
2021/12/29 06:52:26;;;;;;;68.90;22.37;;;7.60;99.90;;;;;;5059155;28;20052;-82
2021/12/29 06:54:52;;;;;;;65.83;22.90;;;7.60;99.90;;;;;;5059175;28;20058;-81
2021/12/29 06:57:18;;;;;;;70.10;23.07;;;7.60;99.90;;;;;;5058641;28;20133;-82
2021/12/29 06:59:44;;;;;;;76.03;23.53;;;7.60;99.90;;;;;;5068453;28;20066;-82
2021/12/29 07:02:11;;;;;;;75.47;23.40;;;7.60;99.90;;;;;;5061288;28;20040;-83
2021/12/29 07:04:37;;;;;;;76.17;22.43;;;7.60;99.90;;;;;;5075024;28;20036;-81
2021/12/29 07:07:03;;;;;;;67.87;21.07;;;7.60;99.90;;;;;;5059498;28;20079;-81
2021/12/29 07:09:29;;;;;;;84.87;24.60;;;7.60;99.90;;;;;;5059021;28;20048;-82
2021/12/29 07:11:55;;;;;;;75.33;23.73;;;7.60;99.90;;;;;;5080681;28;20050;-82
2021/12/29 07:14:21;;;;;;;71.03;23.77;;;7.60;99.90;;;;;;5077176;28;20050;-82
2021/12/29 07:16:48;;;;;;;73.63;23.77;;;7.60;99.90;;;;;;5076512;28;20078;-82
2021/12/29 07:19:15;;;;;;;79.37;24.40;;;7.60;99.90;;;;;;5044322;28;20414;-82
2021/12/29 07:21:41;;;;;;;67.27;21.83;;;7.60;99.90;;;;;;5052332;28;20423;-82
2021/12/29 07:24:07;;;;;;;63.23;21.73;;;7.60;99.90;;;;;;5060081;28;20047;-83
2021/12/29 07:26:34;;;;;;;70.57;22.83;;;7.60;99.90;;;;;;5072338;28;20036;-81
2021/12/29 07:29:01;;;;;;;67.30;23.83;;;7.60;99.90;;;;;;5112500;27;20052;-82
2021/12/29 07:31:27;;;;;;;66.00;22.77;;;7.60;99.90;;;;;;5101325;27;20676;-83
2021/12/29 07:33:54;;;;;;;67.60;21.37;;;7.60;99.90;;;;;;5099709;27;20050;-82
2021/12/29 07:36:20;;;;;;;66.67;21.20;;;7.60;99.90;;;;;;5079318;27;20364;-83
2021/12/29 07:38:46;;;;;;;60.93;18.97;;;7.60;99.90;;;;;;5078821;27;20039;-82
2021/12/29 07:41:12;;;;;;;63.20;20.70;;;7.60;99.90;;;;;;5100049;27;20072;-82
2021/12/29 07:43:39;;;;;;;62.37;18.73;;;7.60;99.90;;;;;;5080930;27;20126;-82
2021/12/29 07:46:06;;;;;;;52.27;18.97;;;7.60;99.90;;;;;;5099640;27;20053;-83
2021/12/29 07:48:32;;;;;;;66.83;19.73;;;7.60;99.90;;;;;;5093774;27;20104;-82
2021/12/29 07:51:02;;;;;;;55.63;18.43;;;7.60;99.90;;;;;;5083082;27;20104;-82
2021/12/29 07:53:28;;;;;;;54.30;18.83;;;7.60;99.90;;;;;;5101080;27;20050;-81
2021/12/29 07:55:54;;;;;;;62.00;19.87;;;7.60;99.90;;;;;;5083069;27;20051;-83
2021/12/29 07:58:20;;;;;;;69.23;18.33;;;7.60;99.90;;;;;;5123494;27;20047;-78
2021/12/29 08:00:47;;;;;;;60.03;19.73;;;7.60;99.90;;;;;;5082689;27;20038;-74
2021/12/29 08:03:14;;;;;;;59.50;19.20;;;7.60;99.90;;;;;;5090929;27;20076;-83
2021/12/29 08:05:41;;;;;;;60.73;18.67;;;7.60;99.90;;;;;;5116612;27;20067;-81
2021/12/29 08:08:07;;;;;;;59.27;18.53;;;7.60;99.90;;;;;;5116067;27;20433;-81
2021/12/29 08:10:34;;;;;;;53.73;17.17;;;7.60;99.90;;;;;;5117284;27;20158;-80
2021/12/29 08:13:01;;;;;;;56.80;18.93;;;7.60;99.90;;;;;;5081376;27;20051;-79
2021/12/29 08:15:27;;;;;;;64.87;19.27;;;7.60;99.90;;;;;;5098186;27;20039;-81
2021/12/29 08:17:53;;;;;;;50.33;16.33;;;7.60;99.90;;;;;;5080181;27;20047;-81
2021/12/29 08:20:19;;;;;;;67.80;18.60;;;7.60;99.90;;;;;;5079879;27;20031;-81
2021/12/29 08:22:44;;;;;;;62.67;17.63;;;7.60;99.90;;;;;;5083034;27;20039;-80
2021/12/29 08:25:10;;;;;;;70.73;20.23;;;7.60;99.90;;;;;;5062080;27;20036;-78
2021/12/29 08:27:36;;;;;;;74.37;20.10;;;7.70;99.90;;;;;;5064715;27;20056;-80
2021/12/29 08:30:05;;;;;;;73.07;20.00;;;7.60;99.90;;;;;;5110849;27;20075;-80
2021/12/29 08:32:31;;;;;;;61.53;18.97;;;7.70;99.90;;;;;;5076529;27;20043;-81
2021/12/29 08:34:57;;;;;;;69.03;19.77;;;7.70;99.90;;;;;;5111248;27;20059;-80
2021/12/29 08:37:22;;;;;;;72.13;19.77;;;7.70;99.90;;;;;;5080966;27;20046;-81
2021/12/29 08:39:49;;;;;;;70.10;20.63;;;7.70;99.90;;;;;;5065912;27;20207;-81
2021/12/29 08:42:14;;;;;;;79.20;22.63;;;7.70;99.90;;;;;;5095716;28;20143;-79
2021/12/29 08:44:40;;;;;;;74.23;20.00;;;7.70;99.90;;;;;;5066417;27;20602;-79
2021/12/29 08:47:06;;;;;;;70.53;20.67;;;7.70;99.90;;;;;;5090943;27;20039;-80
2021/12/29 08:49:32;;;;;;;73.67;22.47;;;7.70;99.90;;;;;;5082707;27;20038;-78
2021/12/29 08:51:58;;;;;;;83.67;21.67;;;7.70;99.90;;;;;;5098525;28;20546;-82
2021/12/29 08:54:24;;;;;;;91.43;22.10;;;7.70;99.90;;;;;;5079325;27;20072;-81
2021/12/29 08:56:52;;;;;;;84.67;21.97;;;7.70;99.90;;;;;;5082381;28;20122;-80
2021/12/29 08:59:17;;;;;;;85.60;21.77;;;7.70;99.90;;;;;;5112096;28;20091;-81
2021/12/29 09:01:43;;;;;;;61.90;18.73;;;7.70;99.90;;;;;;5079860;28;20100;-81
2021/12/29 09:04:09;;;;;;;74.93;20.53;;;7.70;99.90;;;;;;5079024;27;20099;-80
2021/12/29 09:06:35;;;;;;;57.77;17.73;;;7.80;99.90;;;;;;5066826;27;20369;-80
2021/12/29 09:09:01;;;;;;;67.90;18.93;;;7.80;99.90;;;;;;5084546;27;20379;-80
2021/12/29 09:11:30;;;;;;;70.63;18.97;;;7.80;99.90;;;;;;5087010;27;20047;-81
2021/12/29 09:13:56;;;;;;;69.03;19.20;;;7.80;99.90;;;;;;5067137;27;20082;-80
2021/12/29 09:16:22;;;;;;;66.20;19.03;;;7.80;99.90;;;;;;5082455;27;20043;-80
2021/12/29 09:18:48;;;;;;;59.50;18.57;;;7.80;99.90;;;;;;5085886;27;20039;-81
2021/12/29 09:21:16;;;;;;;80.10;19.97;;;7.80;99.90;;;;;;5090694;27;20050;-80
2021/12/29 09:23:43;;;;;;;66.07;18.60;;;7.80;99.90;;;;;;5100782;27;20175;-81
2021/12/29 09:26:11;;;;;;;70.50;20.60;;;7.80;99.90;;;;;;5119151;27;20039;-80
2021/12/29 09:28:37;;;;;;;62.13;17.47;;;7.80;99.90;;;;;;5099950;27;20477;-80
2021/12/29 09:31:03;;;;;;;65.60;18.80;;;7.80;99.90;;;;;;5101270;27;20043;-80
2021/12/29 09:33:29;;;;;;;55.73;17.00;;;7.90;99.90;;;;;;5097035;27;20102;-80
2021/12/29 09:36:00;;;;;;;72.80;19.70;;;7.90;99.90;;;;;;5081304;27;20055;-81
2021/12/29 09:38:27;;;;;;;59.58;16.75;;;7.90;99.90;;;;;;5079162;27;20108;-80
2021/12/29 09:40:52;;;;;;;52.67;17.03;;;7.90;99.90;;;;;;5116510;27;20043;-82
2021/12/29 09:43:20;;;;;;;58.20;16.53;;;7.90;99.90;;;;;;5100454;27;20035;-81
2021/12/29 09:45:47;;;;;;;50.17;16.07;;;7.90;99.90;;;;;;5091048;27;20545;-81
2021/12/29 09:48:14;;;;;;;64.30;25.50;;;8.00;99.90;;;;;;5109375;27;20051;-80
2021/12/29 09:50:41;;;;;;;54.10;17.50;;;8.00;99.90;;;;;;5077041;27;20042;-80
2021/12/29 09:53:08;;;;;;;61.57;17.83;;;7.90;99.90;;;;;;5067543;27;20050;-81
2021/12/29 09:55:34;;;;;;;56.80;17.57;;;8.00;99.90;;;;;;5072883;27;20043;-80
2021/12/29 09:58:03;;;;;;;84.50;20.53;;;8.00;99.90;;;;;;5080267;27;20047;-81
2021/12/29 10:00:41;;;;;;;70.07;18.50;;;8.00;99.90;;;;;;5094889;27;20261;-80
2021/12/29 10:03:12;;;;;;;71.13;18.73;;;8.00;99.90;;;;;;5094317;27;20057;-81
2021/12/29 10:05:39;;;;;;;52.23;16.27;;;8.00;99.90;;;;;;5098282;27;20047;-80
2021/12/29 10:08:09;;;;;;;92.50;20.97;;;8.10;99.90;;;;;;5074273;27;20099;-81
2021/12/29 10:10:38;;;;;;;67.83;18.03;;;8.00;99.90;;;;;;5096593;27;20076;-80
2021/12/29 10:13:06;;;;;;;62.67;16.53;;;8.00;99.90;;;;;;5098873;27;20438;-80
2021/12/29 10:15:36;;;;;;;55.47;15.60;;;8.10;99.90;;;;;;5096896;27;20855;-80
2021/12/29 10:18:05;;;;;;;37.23;12.60;;;8.10;99.90;;;;;;5110489;27;20039;-80
2021/12/29 10:20:31;;;;;;;43.17;13.83;;;8.10;99.90;;;;;;5095776;27;20031;-81
2021/12/29 10:22:58;;;;;;;42.80;13.93;;;8.10;99.90;;;;;;5114821;27;20039;-81
2021/12/29 10:25:24;;;;;;;34.07;11.67;;;8.10;99.90;;;;;;5083324;27;20054;-80
2021/12/29 10:27:52;;;;;;;31.37;10.83;;;8.10;99.90;;;;;;5081814;27;20043;-81
2021/12/29 10:30:21;;;;;;;30.83;11.17;;;8.20;99.90;;;;;;5092069;27;20039;-81
2021/12/29 10:32:47;;;;;;;27.40;10.37;;;8.20;99.90;;;;;;5098965;27;20047;-81
2021/12/29 10:35:25;;;;;;;27.90;10.47;;;8.20;99.90;;;;;;5101326;27;20481;-81
2021/12/29 10:37:54;;;;;;;31.70;10.87;;;8.20;99.90;;;;;;5095013;27;20039;-80
2021/12/29 10:40:31;;;;;;;25.27;9.40;;;8.20;99.90;;;;;;5095386;27;20043;-81
2021/12/29 10:43:00;;;;;;;24.00;8.43;;;8.20;99.90;;;;;;5075349;27;20057;-80
2021/12/29 10:45:35;;;;;;;22.30;9.70;;;8.20;99.90;;;;;;5090474;27;20096;-81
2021/12/29 10:48:02;;;;;;;26.83;9.73;;;8.20;99.90;;;;;;5089554;27;20039;-81
2021/12/29 10:50:29;;;;;;;21.27;8.60;;;8.30;99.90;;;;;;5067456;27;20081;-81
2021/12/29 10:52:58;;;;;;;20.33;8.40;;;8.20;99.90;;;;;;5100173;27;20047;-81
2021/12/29 10:55:35;;;;;;;24.00;8.83;;;8.30;99.90;;;;;;5115610;27;20051;-81
2021/12/29 10:58:14;;;;;;;18.60;8.20;;;8.30;99.90;;;;;;5114375;27;20042;-81
2021/12/29 11:00:47;;;;;;;23.07;8.67;;;8.30;99.90;;;;;;5095922;27;20050;-81
2021/12/29 11:03:22;;;;;;;19.37;7.63;;;8.20;99.90;;;;;;5116438;27;20044;-81
2021/12/29 11:05:53;;;;;;;23.83;9.43;;;8.20;99.90;;;;;;5083392;27;20039;-81
2021/12/29 11:08:19;;;;;;;23.20;8.35;;;8.20;99.90;;;;;;5098984;27;20055;-81
2021/12/29 11:10:46;;;;;;;25.50;9.23;;;8.20;99.90;;;;;;5105860;27;20039;-81
2021/12/29 11:13:12;;;;;;;24.17;9.27;;;8.20;99.90;;;;;;5082560;27;20186;-82
2021/12/29 11:15:42;;;;;;;22.03;9.07;;;8.20;99.90;;;;;;5095052;27;20046;-81
2021/12/29 11:18:12;;;;;;;27.93;9.53;;;8.20;99.90;;;;;;5083325;27;20082;-81
2021/12/29 11:20:39;;;;;;;21.93;8.23;;;8.20;99.90;;;;;;5109511;27;20071;-81
2021/12/29 11:23:14;;;;;;;36.70;10.80;;;8.20;99.90;;;;;;5092031;27;20042;-81
2021/12/29 11:25:43;;;;;;;26.93;10.63;;;8.20;99.90;;;;;;5095977;27;20396;-81
2021/12/29 11:28:29;;;;;;;28.03;10.47;;;8.20;99.90;;;;;;5116493;27;20055;-81
2021/12/29 11:30:57;;;;;;;46.40;33.63;;;8.20;99.90;;;;;;5105481;27;20039;-81
2021/12/29 11:33:24;;;;;;;27.67;11.27;;;8.20;99.90;;;;;;5081475;27;20036;-81
2021/12/29 11:35:53;;;;;;;30.93;11.67;;;8.20;99.90;;;;;;5073922;27;20565;-80
2021/12/29 11:38:20;;;;;;;28.87;11.10;;;8.20;99.90;;;;;;5113296;27;20039;-80
2021/12/29 11:41:00;;;;;;;33.30;11.87;;;8.20;99.90;;;;;;5083771;27;20032;-80
2021/12/29 11:43:27;;;;;;;34.80;12.73;;;8.20;99.90;;;;;;5109890;27;20054;-80
2021/12/29 11:45:56;;;;;;;35.43;13.03;;;8.20;99.90;;;;;;5096478;27;20561;-81
2021/12/29 11:48:23;;;;;;;33.97;12.83;;;8.20;99.90;;;;;;5092981;27;20053;-81
2021/12/29 11:51:00;;;;;;;42.77;15.23;;;8.20;99.90;;;;;;5068199;27;20039;-80
2021/12/29 11:53:49;;;;;;;52.17;17.47;;;8.20;99.90;;;;;;5114254;27;20050;-81
2021/12/29 11:56:19;;;;;;;39.73;14.33;;;8.30;99.90;;;;;;5096488;27;20107;-80
2021/12/29 11:58:46;;;;;;;35.93;13.93;;;8.30;99.90;;;;;;5110269;27;20048;-80
2021/12/29 12:01:15;;;;;;;39.93;13.03;;;8.30;99.90;;;;;;5097678;27;20050;-80
2021/12/29 12:03:42;;;;;;;38.60;12.73;;;8.30;99.90;;;;;;5104626;27;20620;-81
2021/12/29 12:06:39;;;;;;;36.87;13.40;;;8.30;99.90;;;;;;5099792;27;20071;-81
2021/12/29 12:09:12;;;;;;;36.53;12.77;;;8.30;99.90;;;;;;5097350;27;20053;-81
2021/12/29 12:11:52;;;;;;;30.93;11.83;;;8.30;99.90;;;;;;5113065;27;20043;-81
2021/12/29 12:14:21;;;;;;;27.00;12.13;;;8.30;99.90;;;;;;5117493;27;20043;-80
2021/12/29 12:17:20;;;;;;;29.67;11.40;;;8.30;99.90;;;;;;5111382;27;20061;-81
2021/12/29 12:19:59;;;;;;;37.13;11.27;;;8.30;99.90;;;;;;5063192;27;20135;-81
2021/12/29 12:22:27;;;;;;;34.70;12.50;;;8.30;99.90;;;;;;5114702;27;20042;-81
2021/12/29 12:25:00;;;;;;;38.90;12.37;;;8.30;99.90;;;;;;5093616;27;20035;-81
2021/12/29 12:27:35;;;;;;;36.43;12.37;;;8.30;99.90;;;;;;5112519;28;20055;-81
2021/12/29 12:30:07;;;;;;;32.10;12.70;;;8.30;99.90;;;;;;5111397;28;20088;-81
2021/12/29 12:32:51;;;;;;;34.95;13.13;;;8.30;99.90;;;;;;5093918;28;20047;-81
2021/12/29 12:35:45;;;;;;;34.40;12.80;;;8.30;99.90;;;;;;5092693;28;20052;-81
2021/12/29 12:38:17;;;;;;;26.60;10.90;;;8.20;99.90;;;;;;5092027;28;20106;-81
2021/12/29 12:40:43;;;;;;;27.75;11.80;;;8.20;99.90;;;;;;5089936;28;20066;-81
2021/12/29 12:43:13;;;;;;;27.00;11.37;;;8.20;99.90;;;;;;5109291;28;20082;-81
2021/12/29 12:45:50;;;;;;;26.50;10.00;;;8.20;99.90;;;;;;5091776;28;20079;-81
2021/12/29 12:48:29;;;;;;;31.53;10.43;;;8.10;99.90;;;;;;5095954;28;20048;-81